createdAt,value
2019-02-07T00:02:15.006Z,88.40
2019-02-07T00:04:46.278Z,88.00
2019-02-07T00:07:17.887Z,97.73
2019-02-07T00:09:49.296Z,101.20
2019-02-07T00:12:20.613Z,93.83
2019-02-07T00:14:52.107Z,101.67
2019-02-07T00:17:23.384Z,98.43
2019-02-07T00:19:54.937Z,99.80
2019-02-07T00:22:26.611Z,108.47
2019-02-07T00:24:57.943Z,104.83
2019-02-07T00:27:29.197Z,102.73
2019-02-07T00:30:21.669Z,94.00
2019-02-07T00:32:54.264Z,88.57
2019-02-07T00:35:25.540Z,90.50
2019-02-07T00:37:56.825Z,101.77
2019-02-07T00:40:28.681Z,84.57
2019-02-07T00:43:00.209Z,87.77
2019-02-07T00:45:31.517Z,87.13
2019-02-07T00:48:02.763Z,77.73
2019-02-07T00:50:34.149Z,81.43
2019-02-07T00:53:06.078Z,81.70
2019-02-07T00:55:37.504Z,91.47
2019-02-07T00:58:08.813Z,86.47
2019-02-07T01:00:40.244Z,79.13
2019-02-07T01:03:11.546Z,79.37
2019-02-07T01:05:43.251Z,93.53
2019-02-07T01:08:14.743Z,78.50
2019-02-07T01:10:46.089Z,89.27
2019-02-07T01:13:17.400Z,82.60
2019-02-07T01:15:48.667Z,74.30
2019-02-07T01:18:20.358Z,81.43
2019-02-07T01:20:51.841Z,77.93
2019-02-07T01:23:23.174Z,81.60
2019-02-07T01:25:54.464Z,68.27
2019-02-07T01:28:25.717Z,87.50
2019-02-07T01:30:57.095Z,83.33
2019-02-07T01:33:28.248Z,67.70
2019-02-07T01:35:59.447Z,72.60
2019-02-07T01:38:30.585Z,78.13
2019-02-07T01:41:01.783Z,73.57
2019-02-07T01:43:33.022Z,73.27
2019-02-07T01:46:04.283Z,76.23
2019-02-07T01:48:35.536Z,70.97
2019-02-07T01:51:06.835Z,65.60
2019-02-07T01:53:38.108Z,70.47
2019-02-07T01:56:09.327Z,69.47
2019-02-07T01:58:40.674Z,70.47
2019-02-07T02:01:12.120Z,69.83
2019-02-07T02:03:43.413Z,71.10
2019-02-07T02:06:14.630Z,66.80
2019-02-07T02:08:45.919Z,75.17
2019-02-07T02:11:17.371Z,76.13
2019-02-07T02:13:48.796Z,75.17
2019-02-07T02:16:20.151Z,78.53
2019-02-07T02:18:51.436Z,74.30
2019-02-07T02:21:22.688Z,79.47
2019-02-07T02:23:54.245Z,80.00
2019-02-07T02:26:25.698Z,73.07
2019-02-07T02:28:56.963Z,75.90
2019-02-07T02:31:28.330Z,74.70
2019-02-07T02:33:59.590Z,74.47
2019-02-07T02:36:31.229Z,79.03
2019-02-07T02:39:02.491Z,80.33
2019-02-07T02:41:34.938Z,84.10
2019-02-07T02:44:06.440Z,77.57
2019-02-07T02:46:37.738Z,74.60
2019-02-07T02:49:09.575Z,73.20
2019-02-07T02:51:40.902Z,84.03
2019-02-07T02:54:30.998Z,78.00
2019-02-07T02:57:02.474Z,79.00
2019-02-07T02:59:34.130Z,79.47
2019-02-07T03:02:39.886Z,77.60
2019-02-07T03:05:36.211Z,80.77
2019-02-07T03:08:17.564Z,77.93
2019-02-07T03:11:06.325Z,89.57
2019-02-07T03:13:59.640Z,76.97
2019-02-07T03:17:01.753Z,79.57
2019-02-07T03:19:51.354Z,72.87
2019-02-07T03:22:40.178Z,74.10
2019-02-07T03:25:48.547Z,81.63
2019-02-07T03:28:47.562Z,78.03
2019-02-07T03:31:49.562Z,73.87
2019-02-07T03:34:34.170Z,70.63
2019-02-07T03:37:36.156Z,77.93
2019-02-07T03:40:25.440Z,74.67
2019-02-07T03:43:19.584Z,79.90
2019-02-07T03:46:05.367Z,78.27
2019-02-07T03:48:58.236Z,87.70
2019-02-07T03:52:00.467Z,104.53
2019-02-07T03:55:05.690Z,90.53
2019-02-07T03:57:54.592Z,91.33
2019-02-07T04:00:43.263Z,82.47
2019-02-07T04:03:36.183Z,81.47
2019-02-07T04:06:27.204Z,84.63
2019-02-07T04:09:23.143Z,89.63
2019-02-07T04:12:16.004Z,87.47
2019-02-07T04:15:22.541Z,81.20
2019-02-07T04:18:20.353Z,79.37
2019-02-07T04:21:11.810Z,68.40
2019-02-07T04:24:20.317Z,78.03
2019-02-07T04:27:12.732Z,76.40
2019-02-07T04:29:54.604Z,68.37
2019-02-07T04:32:43.750Z,72.67
2019-02-07T04:35:33.876Z,71.43
2019-02-07T04:38:33.081Z,74.60
2019-02-07T04:41:38.456Z,67.33
2019-02-07T04:44:37.702Z,71.97
2019-02-07T04:47:26.450Z,83.97
2019-02-07T04:50:15.242Z,82.53
2019-02-07T04:53:01.357Z,98.27
2019-02-07T04:55:54.213Z,87.73
2019-02-07T04:58:44.341Z,91.07
2019-02-07T05:01:46.513Z,87.37
2019-02-07T05:04:27.685Z,90.47
2019-02-07T05:07:16.330Z,93.00
2019-02-07T05:10:05.364Z,83.67
2019-02-07T05:12:54.605Z,85.13
2019-02-07T05:16:03.124Z,83.97
2019-02-07T05:19:08.151Z,84.30
2019-02-07T05:22:04.474Z,78.13
2019-02-07T05:24:57.409Z,86.77
2019-02-07T05:27:46.255Z,83.70
2019-02-07T05:30:48.901Z,89.73
2019-02-07T05:33:39.510Z,98.63
2019-02-07T05:36:28.007Z,102.03
2019-02-07T05:39:21.244Z,101.00
2019-02-07T05:42:16.507Z,106.43
2019-02-07T05:45:05.764Z,105.27
2019-02-07T05:48:02.066Z,103.40
2019-02-07T05:50:51.488Z,95.87
2019-02-07T05:53:38.408Z,107.67
2019-02-07T05:56:20.092Z,105.17
2019-02-07T05:59:11.727Z,110.47
2019-02-07T06:02:10.854Z,112.80
2019-02-07T06:05:08.822Z,105.30
2019-02-07T06:07:51.079Z,106.97
2019-02-07T06:10:35.970Z,106.07
2019-02-07T06:13:24.711Z,101.60
2019-02-07T06:16:13.717Z,103.93
2019-02-07T06:19:02.969Z,97.90
2019-02-07T06:21:52.307Z,105.10
2019-02-07T06:24:34.241Z,98.07
2019-02-07T06:27:28.343Z,111.67
2019-02-07T06:30:24.293Z,108.83
2019-02-07T06:33:13.517Z,100.17
2019-02-07T06:36:22.956Z,105.50
2019-02-07T06:39:13.719Z,103.23
2019-02-07T06:42:02.654Z,109.63
2019-02-07T06:44:52.039Z,109.93
2019-02-07T06:47:41.209Z,102.73
2019-02-07T06:50:37.405Z,110.57
2019-02-07T06:53:45.886Z,108.97
2019-02-07T06:56:35.068Z,109.23
2019-02-07T06:59:25.553Z,120.60
2019-02-07T07:02:33.949Z,110.80
2019-02-07T07:05:40.344Z,107.40
2019-02-07T07:08:33.270Z,105.10
2019-02-07T07:11:23.704Z,105.57
2019-02-07T07:14:12.599Z,105.27
2019-02-07T07:17:08.690Z,101.87
2019-02-07T07:19:57.718Z,102.47
2019-02-07T07:22:56.851Z,98.47
2019-02-07T07:25:41.757Z,103.33
2019-02-07T07:28:30.504Z,96.43
2019-02-07T07:31:23.245Z,94.77
2019-02-07T07:34:11.981Z,89.57
2019-02-07T07:37:05.103Z,84.80
2019-02-07T07:39:58.174Z,86.63
2019-02-07T07:42:54.119Z,83.00
2019-02-07T07:45:59.570Z,76.67
2019-02-07T07:48:58.924Z,69.33
2019-02-07T07:51:51.913Z,73.33
2019-02-07T07:54:41.092Z,70.27
2019-02-07T07:57:46.507Z,76.43
2019-02-07T08:00:45.696Z,75.40
2019-02-07T08:03:33.259Z,69.90
2019-02-07T08:06:18.518Z,72.17
2019-02-07T08:09:08.007Z,72.27
2019-02-07T08:12:07.483Z,72.73
2019-02-07T08:15:06.932Z,67.27
2019-02-07T08:18:08.974Z,72.93
2019-02-07T08:20:54.407Z,76.83
2019-02-07T08:23:53.493Z,69.70
2019-02-07T08:26:46.695Z,67.40
2019-02-07T08:29:36.685Z,68.77
2019-02-07T08:32:29.717Z,73.10
2019-02-07T08:35:18.122Z,64.63
2019-02-07T08:38:07.706Z,71.33
2019-02-07T08:40:47.373Z,63.73
2019-02-07T08:43:46.694Z,57.07
2019-02-07T08:46:39.291Z,62.23
2019-02-07T08:49:24.282Z,57.13
2019-02-07T08:52:29.722Z,58.73
2019-02-07T08:55:18.260Z,53.67
2019-02-07T08:58:14.557Z,54.17
2019-02-07T09:01:22.870Z,60.40
2019-02-07T09:04:11.464Z,60.30
2019-02-07T09:07:07.925Z,51.63
2019-02-07T09:09:57.980Z,58.93
2019-02-07T09:12:44.876Z,60.90
2019-02-07T09:15:33.793Z,55.93
2019-02-07T09:18:22.680Z,60.97
2019-02-07T09:21:21.243Z,58.03
2019-02-07T09:24:26.851Z,54.83
2019-02-07T09:27:14.318Z,52.80
2019-02-07T09:30:03.204Z,48.90
2019-02-07T09:32:52.007Z,47.17
2019-02-07T09:35:40.973Z,44.23
2019-02-07T09:38:37.047Z,47.17
2019-02-07T09:41:30.611Z,47.37
2019-02-07T09:44:13.786Z,48.63
2019-02-07T09:46:57.870Z,48.47
2019-02-07T09:49:57.083Z,39.73
2019-02-07T09:52:51.332Z,37.50
2019-02-07T09:55:33.259Z,39.17
2019-02-07T09:58:26.412Z,40.77
2019-02-07T10:01:25.717Z,35.83
2019-02-07T10:04:05.432Z,33.80
2019-02-07T10:06:58.546Z,35.80
2019-02-07T10:09:48.647Z,34.23
2019-02-07T10:12:38.749Z,41.83
2019-02-07T10:15:31.963Z,38.43
2019-02-07T10:18:32.550Z,40.37
2019-02-07T10:21:23.142Z,36.63
2019-02-07T10:24:05.661Z,34.10
2019-02-07T10:27:05.554Z,33.73
2019-02-07T10:29:48.908Z,36.23
2019-02-07T10:32:48.146Z,33.37
2019-02-07T10:35:44.323Z,32.97
2019-02-07T10:38:37.316Z,38.80
2019-02-07T10:41:32.062Z,36.90
2019-02-07T10:44:31.747Z,34.77
2019-02-07T10:47:24.586Z,44.90
2019-02-07T10:50:23.669Z,34.93
2019-02-07T10:53:16.432Z,39.30
2019-02-07T10:56:06.621Z,36.00
2019-02-07T10:58:59.694Z,36.40
2019-02-07T11:01:59.626Z,40.87
2019-02-07T11:04:48.286Z,39.70
2019-02-07T11:07:47.788Z,31.20
2019-02-07T11:10:36.528Z,38.00
2019-02-07T11:13:25.049Z,35.87
2019-02-07T11:16:28.743Z,31.10
2019-02-07T11:19:34.270Z,33.20
2019-02-07T11:22:27.619Z,31.23
2019-02-07T11:25:20.506Z,34.10
2019-02-07T11:28:20.193Z,33.50
2019-02-07T11:31:18.995Z,36.90
2019-02-07T11:34:11.769Z,31.93
2019-02-07T11:37:00.887Z,30.47
2019-02-07T11:39:50.874Z,30.47
2019-02-07T11:42:50.294Z,33.40
2019-02-07T11:45:41.767Z,29.93
2019-02-07T11:48:50.345Z,32.93
2019-02-07T11:51:31.651Z,40.07
2019-02-07T11:54:36.826Z,38.87
2019-02-07T11:57:32.629Z,44.47
2019-02-07T12:00:22.208Z,42.60
2019-02-07T12:03:18.627Z,38.60
2019-02-07T12:06:08.695Z,41.20
2019-02-07T12:08:56.777Z,38.60
2019-02-07T12:11:40.378Z,30.17
2019-02-07T12:14:29.105Z,31.10
2019-02-07T12:17:25.233Z,33.70
2019-02-07T12:20:24.201Z,34.60
2019-02-07T12:23:26.884Z,37.77
2019-02-07T12:26:23.034Z,31.33
2019-02-07T12:29:11.625Z,37.47
2019-02-07T12:32:11.151Z,37.23
2019-02-07T12:34:59.810Z,35.77
2019-02-07T12:37:55.667Z,35.70
2019-02-07T12:40:44.418Z,37.87
2019-02-07T12:43:25.986Z,30.90
2019-02-07T12:46:18.904Z,33.37
2019-02-07T12:49:12.876Z,25.80
2019-02-07T12:52:04.791Z,27.83
2019-02-07T12:54:47.651Z,25.27
2019-02-07T12:57:50.072Z,25.23
2019-02-07T13:00:44.155Z,24.10
2019-02-07T13:03:33.069Z,28.07
2019-02-07T13:06:18.817Z,29.07
2019-02-07T13:09:14.756Z,26.13
2019-02-07T13:11:58.284Z,29.77
2019-02-07T13:14:51.373Z,32.83
2019-02-07T13:17:44.676Z,32.27
2019-02-07T13:20:35.334Z,33.33
2019-02-07T13:23:24.590Z,42.03
2019-02-07T13:26:05.070Z,44.73
2019-02-07T13:28:53.631Z,44.10
2019-02-07T13:31:58.834Z,46.47
2019-02-07T13:34:54.643Z,43.60
2019-02-07T13:37:35.125Z,42.57
2019-02-07T13:40:45.658Z,41.87
2019-02-07T13:43:45.752Z,38.40
2019-02-07T13:46:41.386Z,42.53
2019-02-07T13:49:31.476Z,33.13
2019-02-07T13:52:21.541Z,26.10
2019-02-07T13:55:11.582Z,24.07
2019-02-07T13:58:16.962Z,21.33
2019-02-07T14:01:24.265Z,22.53
2019-02-07T14:04:14.282Z,24.33
2019-02-07T14:07:04.349Z,25.00
2019-02-07T14:09:57.073Z,24.20
2019-02-07T14:12:50.074Z,22.27
2019-02-07T14:15:43.278Z,22.17
2019-02-07T14:18:34.541Z,21.93
2019-02-07T14:21:18.460Z,29.80
2019-02-07T14:24:17.806Z,23.17
2019-02-07T14:27:09.453Z,23.60
2019-02-07T14:30:06.620Z,20.50
2019-02-07T14:32:49.820Z,24.07
2019-02-07T14:35:54.874Z,24.67
2019-02-07T14:38:47.686Z,24.93
2019-02-07T14:41:36.512Z,27.30
2019-02-07T14:44:38.825Z,29.00
2019-02-07T14:47:12.724Z,35.77
2019-02-07T14:49:43.825Z,34.00
2019-02-07T14:52:15.091Z,41.03
2019-02-07T14:54:46.188Z,39.90
2019-02-07T14:57:17.285Z,33.77
2019-02-07T14:59:48.535Z,48.60
2019-02-07T15:02:20.021Z,36.47
2019-02-07T15:04:51.195Z,32.20
2019-02-07T15:07:22.260Z,35.60
2019-02-07T15:09:53.379Z,33.33
2019-02-07T15:12:24.472Z,36.03
2019-02-07T15:14:55.971Z,36.07
2019-02-07T15:17:27.306Z,33.20
2019-02-07T15:19:58.419Z,35.43
2019-02-07T15:22:29.540Z,38.60
2019-02-07T15:25:00.621Z,44.10
2019-02-07T15:27:31.874Z,34.27
2019-02-07T15:30:03.036Z,43.93
2019-02-07T15:32:34.109Z,42.33
2019-02-07T15:35:08.559Z,53.33
2019-02-07T15:37:39.633Z,44.67
2019-02-07T15:40:14.857Z,42.10
2019-02-07T15:42:45.990Z,50.57
2019-02-07T15:45:17.283Z,53.47
2019-02-07T15:47:48.372Z,42.80
2019-02-07T15:50:22.248Z,41.53
2019-02-07T15:52:55.620Z,46.63
2019-02-07T15:55:26.788Z,52.57
2019-02-07T15:57:58.215Z,46.63
2019-02-07T16:00:47.459Z,50.47
2019-02-07T16:03:36.787Z,53.10
2019-02-07T16:06:07.837Z,49.53
2019-02-07T16:08:38.952Z,49.30
2019-02-07T16:11:10.048Z,54.67
2019-02-07T16:13:41.125Z,53.20
2019-02-07T16:16:13.267Z,58.03
2019-02-07T16:18:44.406Z,56.07
2019-02-07T16:21:16.072Z,61.63
2019-02-07T16:23:47.133Z,53.20
2019-02-07T16:26:18.207Z,61.40
2019-02-07T16:28:49.263Z,60.47
2019-02-07T16:31:20.296Z,60.10
2019-02-07T16:33:51.371Z,55.50
2019-02-07T16:36:22.985Z,52.47
2019-02-07T16:38:54.376Z,56.60
2019-02-07T16:41:25.791Z,55.03
2019-02-07T16:43:57.055Z,55.83
2019-02-07T16:46:28.160Z,55.83
2019-02-07T16:48:59.243Z,56.63
2019-02-07T16:51:31.708Z,59.00
2019-02-07T16:54:03.054Z,51.13
2019-02-07T16:56:34.260Z,57.23
2019-02-07T16:59:05.410Z,58.03
2019-02-07T17:01:36.591Z,58.90
2019-02-07T17:04:08.194Z,58.67
2019-02-07T17:06:39.389Z,58.73
2019-02-07T17:09:28.624Z,63.87
2019-02-07T17:12:01.032Z,60.37
2019-02-07T17:14:32.603Z,57.40
2019-02-07T17:17:05.567Z,56.50
2019-02-07T17:19:36.945Z,52.87
2019-02-07T17:22:08.253Z,53.20
2019-02-07T17:24:39.614Z,53.50
2019-02-07T17:27:10.726Z,56.10
2019-02-07T17:29:42.241Z,52.10
2019-02-07T17:32:13.720Z,53.90
2019-02-07T17:34:45.387Z,53.40
2019-02-07T17:37:16.880Z,55.17
2019-02-07T17:39:48.542Z,51.90
2019-02-07T17:42:19.920Z,57.83
2019-02-07T17:44:51.099Z,71.80
2019-02-07T17:47:28.276Z,66.93
2019-02-07T17:50:00.959Z,70.80
2019-02-07T17:52:32.079Z,72.57
2019-02-07T17:55:03.245Z,70.77
2019-02-07T17:57:36.153Z,75.60
2019-02-07T18:00:28.170Z,72.27
2019-02-07T18:02:59.436Z,74.47
2019-02-07T18:05:31.003Z,73.57
2019-02-07T18:08:02.334Z,65.63
2019-02-07T18:10:33.718Z,81.27
2019-02-07T18:13:05.471Z,81.47
2019-02-07T18:15:36.956Z,77.43
2019-02-07T18:18:08.081Z,79.20
2019-02-07T18:20:39.161Z,67.53
2019-02-07T18:23:10.362Z,84.50
2019-02-07T18:25:41.505Z,93.83
2019-02-07T18:28:13.091Z,81.20
2019-02-07T18:30:46.915Z,78.53
2019-02-07T18:33:18.093Z,78.57
2019-02-07T18:35:49.172Z,81.03
2019-02-07T18:38:20.390Z,85.47
2019-02-07T18:40:51.700Z,86.37
2019-02-07T18:43:22.895Z,84.90
2019-02-07T18:45:54.177Z,88.13
2019-02-07T18:48:25.441Z,88.80
2019-02-07T18:50:56.609Z,97.90
2019-02-07T18:53:28.067Z,91.77
2019-02-07T18:55:59.273Z,96.10
2019-02-07T18:58:30.507Z,89.07
2019-02-07T19:01:02.518Z,97.43
2019-02-07T19:03:34.129Z,96.20
2019-02-07T19:06:06.251Z,90.63
2019-02-07T19:08:37.814Z,92.30
2019-02-07T19:11:09.137Z,90.30
2019-02-07T19:13:40.318Z,101.13
2019-02-07T19:16:16.716Z,96.97
2019-02-07T19:18:48.223Z,103.87
2019-02-07T19:21:19.372Z,97.23
2019-02-07T19:23:50.555Z,101.10
2019-02-07T19:26:22.872Z,103.63
2019-02-07T19:28:55.036Z,103.63
2019-02-07T19:31:26.923Z,104.63
2019-02-07T19:33:58.221Z,96.90
2019-02-07T19:36:29.490Z,96.83
2019-02-07T19:39:00.725Z,89.60
2019-02-07T19:41:32.530Z,84.33
2019-02-07T19:44:03.852Z,95.70
2019-02-07T19:46:35.148Z,116.93
2019-02-07T19:49:06.976Z,119.30
2019-02-07T19:51:38.704Z,111.63
2019-02-07T19:54:10.053Z,107.50
2019-02-07T19:56:41.190Z,100.03
2019-02-07T19:59:12.436Z,95.60
2019-02-07T20:01:43.662Z,97.57
2019-02-07T20:04:14.919Z,97.87
2019-02-07T20:06:46.091Z,104.77
2019-02-07T20:09:17.343Z,101.20
2019-02-07T20:11:48.912Z,108.87
2019-02-07T20:14:20.178Z,90.63
2019-02-07T20:16:51.350Z,81.70
2019-02-07T20:19:22.496Z,83.90
2019-02-07T20:21:53.737Z,79.23
2019-02-07T20:24:25.086Z,76.77
2019-02-07T20:26:56.626Z,71.37
2019-02-07T20:29:27.813Z,67.57
2019-02-07T20:31:59.094Z,71.03
2019-02-07T20:34:33.185Z,69.03
2019-02-07T20:37:05.568Z,66.40
2019-02-07T20:39:40.122Z,74.37
2019-02-07T20:42:11.359Z,71.03
2019-02-07T20:44:42.615Z,71.20
2019-02-07T20:47:13.922Z,70.50
2019-02-07T20:49:46.216Z,70.00
2019-02-07T20:52:17.478Z,70.73
2019-02-07T20:54:48.684Z,84.17
2019-02-07T20:57:19.930Z,71.07
2019-02-07T20:59:51.405Z,73.40
2019-02-07T21:02:24.294Z,69.53
2019-02-07T21:05:00.793Z,77.70
2019-02-07T21:07:32.417Z,75.17
2019-02-07T21:10:03.897Z,83.30
2019-02-07T21:12:36.215Z,74.90
2019-02-07T21:15:10.963Z,77.53
2019-02-07T21:17:42.417Z,75.73
2019-02-07T21:20:15.956Z,72.77
2019-02-07T21:22:47.328Z,69.77
2019-02-07T21:25:23.770Z,65.00
2019-02-07T21:27:56.805Z,54.13
2019-02-07T21:30:32.833Z,57.97
2019-02-07T21:33:05.822Z,60.17
2019-02-07T21:35:37.756Z,58.67
2019-02-07T21:38:09.524Z,56.10
2019-02-07T21:40:44.111Z,58.60
2019-02-07T21:43:15.750Z,49.33
2019-02-07T21:45:47.046Z,56.63
2019-02-07T21:48:25.397Z,60.90
2019-02-07T21:50:56.719Z,64.47
2019-02-07T21:53:28.167Z,61.13
2019-02-07T21:56:00.107Z,61.63
2019-02-07T21:58:31.585Z,71.90
2019-02-07T22:01:08.156Z,68.53
2019-02-07T22:03:39.810Z,58.70
2019-02-07T22:06:15.648Z,62.53
2019-02-07T22:08:48.857Z,61.07
2019-02-07T22:11:20.828Z,60.13
2019-02-07T22:13:53.199Z,62.13
2019-02-07T22:16:24.644Z,55.87
2019-02-07T22:18:58.398Z,54.00
2019-02-07T22:21:32.147Z,51.33
2019-02-07T22:24:07.894Z,50.27
2019-02-07T22:26:44.707Z,56.10
2019-02-07T22:29:15.938Z,54.63
2019-02-07T22:31:52.152Z,58.83
2019-02-07T22:34:23.844Z,53.43
2019-02-07T22:36:56.530Z,53.50
2019-02-07T22:39:29.013Z,53.73
2019-02-07T22:42:00.689Z,55.07
2019-02-07T22:44:31.883Z,58.53
2019-02-07T22:47:03.078Z,55.40
2019-02-07T22:49:34.204Z,51.30
2019-02-07T22:52:05.702Z,47.30
2019-02-07T22:54:36.907Z,53.87
2019-02-07T22:57:08.076Z,51.07
2019-02-07T22:59:39.335Z,49.60
2019-02-07T23:02:11.401Z,51.73
2019-02-07T23:04:42.548Z,50.73
2019-02-07T23:07:13.703Z,53.87
2019-02-07T23:09:44.916Z,49.20
2019-02-07T23:12:16.053Z,59.00
2019-02-07T23:14:47.293Z,52.27
2019-02-07T23:17:18.432Z,61.80
2019-02-07T23:19:49.827Z,56.70
2019-02-07T23:22:20.920Z,58.17
2019-02-07T23:24:52.132Z,59.47
2019-02-07T23:27:23.306Z,58.70
2019-02-07T23:29:54.436Z,64.00
2019-02-07T23:32:25.626Z,65.03
2019-02-07T23:34:57.008Z,77.87
2019-02-07T23:37:28.176Z,63.10
2019-02-07T23:39:59.395Z,69.83
2019-02-07T23:42:30.607Z,64.90
2019-02-07T23:45:01.816Z,62.77
2019-02-07T23:47:32.943Z,65.83
2019-02-07T23:50:04.854Z,66.03
2019-02-07T23:52:36.070Z,95.73
2019-02-07T23:55:07.243Z,103.17
2019-02-07T23:57:38.410Z,125.27
